Time;durP1;ratioP1;P1;durP2;ratioP2;P2;SDS_P1;SDS_P2;PMS_P1;PMS_P2;Temp;Humidity;BMP_temperature;BMP_pressure;BME280_temperature;BME280_humidity;BME280_pressure;Samples;Min_cycle;Max_cycle;Signal;HPM_P1;HPM_P2
2022/04/25 00:00:22;;;;;;;2.10;1.15;;;;;;;26.46;32.68;100807.06;4954967;29;20504;-51
2022/04/25 00:02:51;;;;;;;2.65;1.35;;;;;;;26.44;32.99;100806.19;4955210;29;20065;-52
2022/04/25 00:05:20;;;;;;;2.30;1.40;;;;;;;26.42;32.96;100800.94;4954991;29;20039;-53
2022/04/25 00:07:48;;;;;;;1.73;1.30;;;;;;;26.39;33.12;100800.94;4954993;29;20098;-53
2022/04/25 00:10:17;;;;;;;6.35;1.73;;;;;;;26.42;32.89;100797.41;4954790;29;20024;-55
2022/04/25 00:12:45;;;;;;;4.05;1.60;;;;;;;26.38;33.01;100791.28;4957516;28;20109;-52
2022/04/25 00:15:14;;;;;;;2.03;1.20;;;;;;;26.36;32.91;100787.78;4958623;29;20024;-50
2022/04/25 00:17:43;;;;;;;3.47;1.58;;;;;;;26.36;32.63;100793.03;4958779;29;20075;-53
2022/04/25 00:20:13;;;;;;;3.00;1.55;;;;;;;26.33;33.05;100791.28;4959215;29;20114;-53
2022/04/25 00:22:41;;;;;;;4.15;1.35;;;;;;;26.36;32.94;100785.16;4958826;29;20425;-52
2022/04/25 00:25:10;;;;;;;1.85;1.27;;;;;;;26.38;33.13;100786.03;4958819;29;20461;-50
2022/04/25 00:27:39;;;;;;;2.28;1.40;;;;;;;26.35;32.86;100788.66;4959022;29;20023;-51
2022/04/25 00:30:08;;;;;;;1.48;1.38;;;;;;;26.35;32.83;100793.91;4958603;29;20389;-52
2022/04/25 00:32:36;;;;;;;2.70;1.40;;;;;;;26.33;32.99;100783.41;4958528;29;20035;-50
2022/04/25 00:35:06;;;;;;;2.15;1.13;;;;;;;26.35;33.03;100786.03;4958444;29;20039;-48
2022/04/25 00:37:34;;;;;;;2.38;1.38;;;;;;;26.35;32.79;100789.53;4958225;29;20043;-45
2022/04/25 00:40:03;;;;;;;3.70;1.40;;;;;;;26.38;33.08;100791.28;4958475;29;20027;-45
2022/04/25 00:42:32;;;;;;;1.30;1.20;;;;;;;26.33;33.15;100791.28;4958291;29;20529;-44
2022/04/25 00:45:00;;;;;;;1.67;1.30;;;;;;;26.34;32.92;100785.16;4958209;29;20166;-49
2022/04/25 00:47:29;;;;;;;1.88;1.40;;;;;;;26.33;32.78;100782.50;4958333;29;20478;-49
2022/04/25 00:49:58;;;;;;;2.80;1.58;;;;;;;26.31;32.79;100784.28;4958055;29;20389;-52
2022/04/25 00:52:27;;;;;;;2.67;1.30;;;;;;;26.25;32.99;100795.66;4958219;29;20374;-49
2022/04/25 00:54:55;;;;;;;1.77;1.10;;;;;;;26.24;32.96;100781.66;4957999;29;20485;-51
2022/04/25 00:57:24;;;;;;;2.05;1.27;;;;;;;26.25;32.83;100790.41;4958067;29;20031;-50
2022/04/25 00:59:53;;;;;;;1.83;1.20;;;;;;;26.28;32.76;100797.44;4957949;29;20027;-50
2022/04/25 01:02:21;;;;;;;2.83;1.40;;;;;;;26.23;33.02;100789.50;4958169;29;20486;-49
2022/04/25 01:04:50;;;;;;;3.13;1.50;;;;;;;26.21;32.91;100784.28;4958127;29;20031;-51
2022/04/25 01:07:18;;;;;;;1.52;1.17;;;;;;;26.25;33.01;100790.41;4957780;29;20031;-51
2022/04/25 01:09:47;;;;;;;2.38;1.60;;;;;;;26.29;32.67;100786.91;4957543;29;20378;-50
2022/04/25 01:12:15;;;;;;;2.28;1.48;;;;;;;26.29;32.74;100794.78;4958024;29;20043;-51
2022/04/25 01:14:44;;;;;;;2.15;1.10;;;;;;;26.24;32.80;100779.03;4957486;29;20037;-51
2022/04/25 01:17:13;;;;;;;1.70;1.25;;;;;;;26.32;32.66;100796.53;4957624;29;20541;-48
2022/04/25 01:19:41;;;;;;;1.60;1.10;;;;;;;26.15;33.03;100768.47;4957519;29;20110;-52
2022/04/25 01:22:11;;;;;;;1.40;1.15;;;;;;;26.27;32.74;100787.78;4957586;28;20098;-52
2022/04/25 01:27:28;;;;;;;2.15;1.30;;;;;;;26.21;33.16;100788.66;4950842;29;20465;-52
2022/04/25 01:29:57;;;;;;;1.80;1.20;;;;;;;26.20;33.09;100793.03;4957356;29;20031;-51
2022/04/25 01:32:26;;;;;;;2.85;1.20;;;;;;;26.24;33.03;100788.63;4957466;29;20126;-53
2022/04/25 01:34:55;;;;;;;1.83;1.40;;;;;;;26.23;33.10;100785.16;4957173;29;20492;-54
2022/04/25 01:37:23;;;;;;;1.67;1.30;;;;;;;26.16;33.07;100783.38;4957226;29;20103;-54
2022/04/25 01:39:54;;;;;;;1.42;0.85;;;;;;;26.13;32.99;100786.03;4956934;29;20035;-52
2022/04/25 01:42:23;;;;;;;2.53;1.23;;;;;;;26.12;33.22;100781.66;4956932;29;20449;-52
2022/04/25 01:44:52;;;;;;;1.65;1.10;;;;;;;26.13;33.11;100780.78;4957458;29;20035;-52
2022/04/25 01:47:21;;;;;;;2.67;1.23;;;;;;;26.14;32.89;100777.28;4956752;29;20031;-52
2022/04/25 01:49:50;;;;;;;3.05;1.10;;;;;;;26.19;32.99;100782.53;4956750;29;20059;-51
2022/04/25 01:52:37;;;;;;;1.98;1.33;;;;;;;26.16;32.97;100774.63;4957603;29;20035;-51
2022/04/25 01:55:06;;;;;;;1.70;1.08;;;;;;;26.12;32.89;100778.13;4957484;29;20082;-50
2022/04/25 01:57:35;;;;;;;1.85;1.45;;;;;;;26.08;32.80;100775.44;4957360;29;20015;-52
2022/04/25 02:00:03;;;;;;;1.40;1.00;;;;;;;26.09;32.95;100785.09;4956801;29;20027;-52
2022/04/25 02:02:32;;;;;;;1.98;1.38;;;;;;;26.11;33.17;100777.25;4956987;29;20035;-50
2022/04/25 02:05:01;;;;;;;2.35;1.40;;;;;;;26.10;33.04;100778.09;4956800;29;20035;-50
2022/04/25 02:07:29;;;;;;;1.60;1.25;;;;;;;26.08;33.21;100769.34;4957398;29;20078;-49
2022/04/25 02:09:58;;;;;;;1.98;1.00;;;;;;;26.07;33.15;100772.84;4956513;29;20031;-47
2022/04/25 02:12:26;;;;;;;1.30;1.20;;;;;;;26.07;33.31;100778.09;4956582;29;20042;-49
2022/04/25 02:14:55;;;;;;;2.33;1.10;;;;;;;26.03;32.96;100771.06;4956705;29;20381;-53
2022/04/25 02:17:24;;;;;;;2.05;1.08;;;;;;;26.04;33.05;100768.47;4956971;29;20042;-48
2022/04/25 02:19:52;;;;;;;1.90;1.13;;;;;;;26.02;32.87;100772.84;4956452;29;20107;-51
2022/04/25 02:22:21;;;;;;;2.00;1.30;;;;;;;26.07;33.10;100775.47;4956490;29;20166;-50
2022/04/25 02:24:49;;;;;;;1.20;1.10;;;;;;;26.01;32.96;100768.44;4956450;29;20118;-47
2022/04/25 02:27:17;;;;;;;2.15;1.17;;;;;;;26.02;32.98;100775.47;4956342;29;20036;-48
2022/04/25 02:29:46;;;;;;;2.10;1.60;;;;;;;26.05;33.18;100772.84;4956143;29;20027;-47
2022/04/25 02:32:15;;;;;;;4.43;1.20;;;;;;;26.05;32.98;100777.22;4956227;29;20031;-51
2022/04/25 02:34:43;;;;;;;1.67;1.15;;;;;;;26.00;33.10;100771.06;4955821;28;20086;-53
2022/04/25 02:37:11;;;;;;;2.85;1.20;;;;;;;26.01;33.09;100773.72;4956259;29;20126;-48
2022/04/25 02:39:40;;;;;;;1.73;1.20;;;;;;;26.02;33.01;100775.47;4956554;29;20034;-48
2022/04/25 02:42:09;;;;;;;5.28;1.33;;;;;;;25.98;33.00;100771.06;4956095;29;20031;-49
2022/04/25 02:44:37;;;;;;;2.60;1.25;;;;;;;25.99;32.87;100767.56;4956195;29;20028;-48
2022/04/25 02:47:06;;;;;;;2.05;1.15;;;;;;;25.98;32.98;100771.06;4956005;29;20077;-49
2022/04/25 02:49:35;;;;;;;1.52;1.13;;;;;;;25.96;33.11;100767.56;4955829;29;20067;-53
2022/04/25 02:52:03;;;;;;;2.70;1.35;;;;;;;25.96;32.89;100767.56;4955751;29;20385;-52
2022/04/25 02:54:32;;;;;;;1.23;1.13;;;;;;;25.96;33.25;100764.06;4955748;29;20437;-51
2022/04/25 02:57:00;;;;;;;1.60;1.15;;;;;;;25.97;32.95;100768.47;4956073;29;20031;-49
2022/04/25 02:59:29;;;;;;;3.50;1.50;;;;;;;25.98;33.05;100770.22;4955548;29;20047;-49
2022/04/25 03:01:58;;;;;;;2.45;1.25;;;;;;;25.96;32.67;100764.94;4955662;29;20038;-49
2022/04/25 03:04:26;;;;;;;1.80;1.50;;;;;;;25.99;32.59;100766.69;4956255;29;20031;-45
2022/04/25 03:06:55;;;;;;;2.30;1.40;;;;;;;25.96;32.98;100758.81;4955781;29;20488;-47
2022/04/25 03:09:24;;;;;;;2.72;1.35;;;;;;;25.97;33.10;100768.47;4955535;29;20027;-45
2022/04/25 03:11:52;;;;;;;2.42;1.10;;;;;;;25.96;32.82;100764.06;4955414;29;20445;-48
2022/04/25 03:14:22;;;;;;;2.22;1.30;;;;;;;25.93;32.95;100767.53;4955524;29;20036;-49
2022/04/25 03:16:50;;;;;;;1.65;1.40;;;;;;;25.90;32.89;100765.81;4955586;29;20485;-48
2022/04/25 03:19:19;;;;;;;1.95;1.40;;;;;;;25.91;32.92;100764.03;4955484;29;20086;-50
2022/04/25 03:21:48;;;;;;;2.00;1.40;;;;;;;25.92;33.05;100769.31;4955112;29;20396;-49
2022/04/25 03:24:16;;;;;;;1.80;1.42;;;;;;;25.92;32.65;100760.53;4955750;29;20058;-50
2022/04/25 03:26:45;;;;;;;1.73;1.27;;;;;;;25.90;32.71;100760.56;4956177;29;20027;-51
2022/04/25 03:29:14;;;;;;;4.28;1.75;;;;;;;25.88;32.87;100762.28;4954978;29;20035;-52
2022/04/25 03:31:43;;;;;;;3.10;1.40;;;;;;;25.87;33.07;100755.28;4955275;29;20496;-52
2022/04/25 03:34:12;;;;;;;2.15;1.13;;;;;;;25.89;32.63;100765.81;4955523;29;20027;-54
2022/04/25 03:36:44;;;;;;;3.22;1.40;;;;;;;25.89;32.74;100765.81;4954980;29;20503;-52
2022/04/25 03:39:13;;;;;;;1.70;1.30;;;;;;;25.88;32.70;100762.28;4955641;29;20035;-52
2022/04/25 03:41:42;;;;;;;4.32;1.50;;;;;;;25.88;32.62;100769.31;4955318;29;20038;-51
2022/04/25 03:44:11;;;;;;;2.13;1.20;;;;;;;25.87;32.70;100768.41;4955221;29;20453;-48
2022/04/25 03:46:40;;;;;;;2.38;1.35;;;;;;;25.88;32.75;100762.28;4955225;28;20035;-49
2022/04/25 03:49:08;;;;;;;2.28;1.17;;;;;;;25.87;32.65;100770.19;4954671;29;20030;-51
2022/04/25 03:51:37;;;;;;;2.65;1.60;;;;;;;25.86;32.91;100766.66;4954975;29;20115;-51
2022/04/25 03:54:05;;;;;;;2.80;1.50;;;;;;;25.83;32.89;100760.53;4954991;29;20035;-52
2022/04/25 03:57:17;;;;;;;2.20;1.42;;;;;;;25.86;32.71;100766.66;4955179;29;20031;-49
2022/04/25 03:59:22;;;;;;;2.95;1.60;;;;;;;25.86;32.72;100769.28;4949040;29;20039;-52
2022/04/25 04:01:51;;;;;;;1.60;1.25;;;;;;;25.83;32.65;100761.41;4954814;29;20110;-50
2022/04/25 04:04:20;;;;;;;1.42;1.33;;;;;;;25.83;32.81;100766.66;4955620;29;20050;-48
2022/04/25 04:06:48;;;;;;;2.13;1.30;;;;;;;25.80;32.72;100758.78;4955017;29;20024;-49
2022/04/25 04:09:59;;;;;;;1.80;1.20;;;;;;;25.85;32.50;100764.03;4954961;29;20059;-49
2022/04/25 04:12:04;;;;;;;2.00;1.25;;;;;;;25.81;32.56;100757.91;4948464;29;20039;-49
2022/04/25 04:14:33;;;;;;;2.08;1.20;;;;;;;25.78;32.80;100763.16;4954775;29;20030;-48
2022/04/25 04:17:01;;;;;;;2.65;1.23;;;;;;;25.79;32.74;100765.78;4954954;29;20039;-52
2022/04/25 04:19:30;;;;;;;1.80;1.17;;;;;;;25.82;32.74;100779.81;4955244;29;20023;-51
2022/04/25 04:21:59;;;;;;;2.35;1.30;;;;;;;25.77;32.50;100779.78;4954921;29;20050;-51
2022/04/25 04:24:27;;;;;;;1.90;1.60;;;;;;;25.77;32.54;100774.53;4954666;29;20155;-49
2022/04/25 04:26:56;;;;;;;3.17;1.75;;;;;;;25.65;32.77;100764.88;4954875;29;20054;-50
2022/04/25 04:29:25;;;;;;;2.13;1.30;;;;;;;25.79;32.49;100791.19;4954750;29;20031;-51
2022/04/25 04:31:53;;;;;;;1.95;1.30;;;;;;;25.78;32.51;100784.19;4954595;29;20027;-50
2022/04/25 04:34:22;;;;;;;2.28;1.73;;;;;;;25.82;32.35;100800.81;4954791;29;20031;-49
2022/04/25 04:36:52;;;;;;;3.25;1.80;;;;;;;25.79;32.61;100793.81;4954335;28;20023;-54
2022/04/25 04:39:20;;;;;;;1.75;1.33;;;;;;;25.78;32.49;100797.31;4954688;29;20087;-51
2022/04/25 04:41:49;;;;;;;2.97;1.58;;;;;;;25.78;32.32;100803.44;4954880;29;20065;-51
2022/04/25 04:44:18;;;;;;;2.42;1.70;;;;;;;25.79;32.67;100797.31;4954724;29;20363;-54
2022/04/25 04:46:47;;;;;;;2.88;1.48;;;;;;;25.78;32.33;100799.94;4954923;29;20384;-52
2022/04/25 04:49:16;;;;;;;2.78;1.60;;;;;;;25.63;32.40;100767.50;4954659;29;20473;-51
2022/04/25 04:51:44;;;;;;;1.63;1.10;;;;;;;25.72;32.59;100787.69;4954818;29;20115;-54
2022/04/25 04:54:13;;;;;;;1.63;1.20;;;;;;;25.76;32.11;100796.44;4954493;29;20028;-51
2022/04/25 04:56:42;;;;;;;3.50;1.48;;;;;;;25.73;32.49;100801.66;4954569;29;20027;-50
2022/04/25 04:59:10;;;;;;;1.67;1.40;;;;;;;25.72;32.35;100805.16;4957013;28;20032;-50
2022/04/25 05:01:39;;;;;;;2.13;1.40;;;;;;;25.73;32.18;100801.66;4958166;29;20031;-49
2022/04/25 05:04:07;;;;;;;2.35;1.67;;;;;;;25.72;32.32;100807.81;4958126;29;20039;-47
2022/04/25 05:06:36;;;;;;;1.83;1.27;;;;;;;25.72;32.29;100806.06;4957926;29;20027;-49
2022/04/25 05:09:04;;;;;;;2.13;1.33;;;;;;;25.71;32.63;100809.56;4957989;29;20106;-50
2022/04/25 05:11:33;;;;;;;3.60;1.40;;;;;;;25.69;32.36;100810.41;4957582;29;20031;-48
2022/04/25 05:14:07;;;;;;;3.63;1.75;;;;;;;25.70;32.26;100809.53;4957620;29;20464;-50
2022/04/25 05:16:36;;;;;;;2.80;1.60;;;;;;;25.72;32.25;100811.31;4957973;29;20354;-51
2022/04/25 05:19:04;;;;;;;2.47;1.23;;;;;;;25.66;32.55;100810.38;4957754;29;20050;-48
2022/04/25 05:21:33;;;;;;;3.42;1.40;;;;;;;25.69;32.13;100810.41;4957688;29;20516;-52
2022/04/25 05:24:01;;;;;;;3.40;1.75;;;;;;;25.68;32.06;100811.28;4957658;29;20039;-49
2022/04/25 05:26:30;;;;;;;4.00;1.77;;;;;;;25.65;32.63;100816.56;4957490;29;20500;-48
2022/04/25 05:28:58;;;;;;;4.18;1.65;;;;;;;25.63;32.42;100822.69;4957651;29;20027;-49
2022/04/25 05:31:27;;;;;;;5.75;1.95;;;;;;;25.69;32.42;100820.91;4957193;29;20122;-51
2022/04/25 05:33:55;;;;;;;2.58;1.90;;;;;;;25.70;32.12;100827.94;4957056;29;20162;-48
2022/04/25 05:36:24;;;;;;;3.20;2.15;;;;;;;25.65;32.43;100827.06;4957377;29;20031;-51
2022/04/25 05:38:52;;;;;;;2.38;1.80;;;;;;;25.63;32.40;100820.03;4957179;29;20122;-50
2022/04/25 05:41:21;;;;;;;5.25;2.45;;;;;;;25.62;32.36;100834.06;4957412;29;20031;-49
2022/04/25 05:43:49;;;;;;;3.38;2.00;;;;;;;25.61;32.25;100840.19;4957427;29;20054;-50
2022/04/25 05:46:18;;;;;;;3.35;2.08;;;;;;;25.65;32.16;100841.06;4957398;29;20057;-46
2022/04/25 05:52:15;;;;;;;2.80;1.65;;;;;;;25.62;32.42;100852.44;4947102;29;20047;-49
2022/04/25 05:54:21;;;;;;;3.70;2.05;;;;;;;25.62;32.53;100849.81;4953393;29;20114;-52
2022/04/25 05:56:50;;;;;;;4.03;1.83;;;;;;;25.59;32.38;100851.53;4956968;29;20035;-53
2022/04/25 05:59:19;;;;;;;3.60;1.85;;;;;;;25.58;32.37;100855.91;4957164;29;20098;-52
2022/04/25 06:01:48;;;;;;;2.58;1.73;;;;;;;25.63;32.41;100861.19;4939866;29;20031;-52
2022/04/25 06:04:17;;;;;;;3.55;2.33;;;;;;;25.60;32.32;100856.81;4957237;29;20031;-54
2022/04/25 06:06:46;;;;;;;3.80;1.80;;;;;;;25.56;32.13;100860.28;4957095;29;20027;-53
2022/04/25 06:09:15;;;;;;;2.65;1.73;;;;;;;25.62;32.31;100862.94;4956025;28;20441;-52
2022/04/25 06:11:44;;;;;;;3.00;2.00;;;;;;;25.59;32.24;100867.28;4955546;29;20035;-51
2022/04/25 06:14:13;;;;;;;3.53;1.80;;;;;;;25.57;32.45;100861.16;4956691;29;20031;-53
2022/04/25 06:16:41;;;;;;;4.65;2.33;;;;;;;25.57;32.60;100864.66;4956941;29;20483;-54
2022/04/25 06:19:10;;;;;;;2.75;1.77;;;;;;;25.58;32.08;100865.53;4956640;29;20031;-53
2022/04/25 06:21:39;;;;;;;3.25;2.00;;;;;;;25.56;32.11;100876.03;4957081;29;20047;-51
2022/04/25 06:24:07;;;;;;;4.28;2.10;;;;;;;25.55;32.42;100878.66;4956671;29;20026;-53
2022/04/25 06:26:36;;;;;;;2.92;2.20;;;;;;;25.59;32.26;100881.31;4957143;29;20066;-51
2022/04/25 06:29:05;;;;;;;3.13;2.20;;;;;;;25.57;32.30;100883.06;4956792;29;20023;-53
2022/04/25 06:31:34;;;;;;;6.32;2.30;;;;;;;25.58;32.50;100886.53;4956589;29;20473;-53
2022/04/25 06:34:02;;;;;;;6.20;2.65;;;;;;;25.62;32.26;100883.97;4956436;29;20397;-52
2022/04/25 06:36:32;;;;;;;3.83;1.98;;;;;;;25.58;32.16;100890.06;4956244;29;20122;-53
2022/04/25 06:39:02;;;;;;;5.15;1.90;;;;;;;25.56;32.27;100883.91;4956062;28;20110;-53
2022/04/25 06:41:31;;;;;;;4.85;2.08;;;;;;;25.55;32.08;100882.16;4956081;29;20114;-53
2022/04/25 06:44:01;;;;;;;5.50;2.53;;;;;;;25.60;32.33;100885.69;4956106;29;20065;-54
2022/04/25 06:46:29;;;;;;;3.78;2.30;;;;;;;25.51;32.50;100879.53;4956409;29;20032;-52
2022/04/25 06:49:41;;;;;;;5.90;2.50;;;;;;;25.50;32.45;100873.38;4955506;29;20038;-50
2022/04/25 06:51:45;;;;;;;5.35;1.92;;;;;;;25.59;32.42;100877.78;4948763;29;20134;-51
2022/04/25 06:54:14;;;;;;;5.82;2.40;;;;;;;25.55;32.32;100879.53;4955916;29;20031;-50
2022/04/25 06:56:43;;;;;;;3.78;2.17;;;;;;;25.54;32.09;100883.03;4956027;29;20031;-53
2022/04/25 06:59:11;;;;;;;4.65;2.50;;;;;;;25.60;32.15;100885.69;4955625;29;20059;-53
2022/04/25 07:01:40;;;;;;;5.28;2.10;;;;;;;25.59;32.17;100885.66;4955725;29;20038;-51
2022/04/25 07:04:08;;;;;;;4.65;2.40;;;;;;;25.56;31.83;100889.19;4956170;29;20039;-53
2022/04/25 07:06:37;;;;;;;3.80;2.00;;;;;;;25.52;32.15;100883.91;4938591;29;20027;-50
2022/04/25 07:09:05;;;;;;;4.38;2.30;;;;;;;25.57;32.06;100896.19;4955783;29;20023;-49
2022/04/25 07:11:34;;;;;;;7.57;2.65;;;;;;;25.56;31.90;100891.81;4955463;29;20542;-52
2022/04/25 07:14:03;;;;;;;4.70;2.10;;;;;;;25.53;32.36;100906.69;4955744;29;20461;-50
2022/04/25 07:16:31;;;;;;;3.88;2.17;;;;;;;25.50;31.94;100902.25;4955810;29;20023;-54
2022/04/25 07:19:00;;;;;;;5.00;2.58;;;;;;;25.54;32.25;100904.03;4955557;29;20038;-55
2022/04/25 07:29:51;;;;;;;5.00;2.53;;;;;;;25.61;31.81;100910.19;4951999;29;20094;-50
2022/04/25 07:32:20;;;;;;;8.30;2.30;;;;;;;25.62;32.15;100917.22;4955577;29;20042;-53
2022/04/25 07:34:49;;;;;;;4.28;2.38;;;;;;;25.63;31.69;100916.34;4955417;29;20446;-46
2022/04/25 07:37:22;;;;;;;4.88;2.00;;;;;;;25.65;31.70;100925.13;4954739;29;20051;-52
2022/04/25 07:39:51;;;;;;;5.53;2.08;;;;;;;25.65;31.75;100921.63;4954883;29;20118;-46
2022/04/25 07:42:20;;;;;;;5.85;2.25;;;;;;;25.63;31.86;100924.22;4955357;29;20106;-52
2022/04/25 07:44:48;;;;;;;3.60;2.28;;;;;;;25.61;32.20;100921.59;4955228;29;20023;-47
2022/04/25 07:47:17;;;;;;;5.63;1.92;;;;;;;25.61;31.99;100928.59;4955151;29;20066;-51
2022/04/25 07:49:46;;;;;;;4.97;2.63;;;;;;;25.60;32.18;100916.31;4954860;29;20023;-49
2022/04/25 07:52:14;;;;;;;3.72;2.40;;;;;;;25.63;32.11;100929.47;4955019;29;20062;-52
2022/04/25 07:54:43;;;;;;;4.57;2.22;;;;;;;25.63;31.89;100930.38;4955074;29;20027;-49
2022/04/25 07:57:11;;;;;;;5.43;2.55;;;;;;;25.62;32.05;100928.63;4954974;29;20031;-50
2022/04/25 07:59:40;;;;;;;7.35;2.40;;;;;;;25.59;32.12;100936.47;4955055;29;20035;-47
2022/04/25 08:02:09;;;;;;;4.55;2.65;;;;;;;25.61;32.23;100933.84;4937972;29;20027;-45
2022/04/25 08:04:38;;;;;;;4.75;2.28;;;;;;;25.68;32.02;100932.13;4954776;29;20541;-49
2022/04/25 08:07:06;;;;;;;3.67;2.10;;;;;;;25.70;31.68;100939.16;4955243;29;20028;-49
2022/04/25 08:09:35;;;;;;;6.05;3.03;;;;;;;25.65;32.00;100945.28;4922014;29;20031;-50
2022/04/25 08:18:01;;;;;;;4.63;2.30;;;;;;;25.59;31.91;100948.72;4951521;29;20491;-50
2022/04/25 08:20:28;;;;;;;6.43;2.72;;;;;;;25.63;31.88;100956.66;4954481;29;20123;-47
2022/04/25 08:22:58;;;;;;;4.60;2.60;;;;;;;25.67;32.21;100952.28;4955086;29;20114;-49
2022/04/25 08:25:30;;;;;;;4.85;2.25;;;;;;;25.67;31.77;100954.00;4954830;29;20560;-45
2022/04/25 08:28:00;;;;;;;4.68;2.45;;;;;;;25.59;32.17;100961.84;4938397;29;20031;-49
2022/04/25 08:30:29;;;;;;;3.90;2.50;;;;;;;25.63;31.68;100959.28;4954649;29;20039;-48
2022/04/25 08:32:58;;;;;;;4.95;2.63;;;;;;;25.63;32.12;100971.50;4955850;28;20031;-51
2022/04/25 08:35:27;;;;;;;4.60;2.60;;;;;;;25.65;31.78;100961.03;4941283;29;20110;-51
2022/04/25 08:37:56;;;;;;;4.90;2.45;;;;;;;25.60;31.74;100964.50;4958121;29;20508;-50
2022/04/25 08:40:25;;;;;;;6.32;2.53;;;;;;;25.57;31.83;100972.38;4958655;29;20106;-48
2022/04/25 08:42:54;;;;;;;5.25;2.55;;;;;;;25.57;31.65;100969.75;4958429;29;20034;-48
2022/04/25 08:45:22;;;;;;;4.43;2.42;;;;;;;25.52;31.84;100976.69;4958451;29;20063;-50
2022/04/25 08:47:55;;;;;;;6.43;2.50;;;;;;;25.59;31.56;100968.00;4941716;29;20019;-49
2022/04/25 08:50:24;;;;;;;5.90;2.70;;;;;;;25.59;32.00;100975.88;4958012;29;20063;-49
2022/04/25 08:52:54;;;;;;;5.28;2.90;;;;;;;25.68;31.57;100979.41;4958066;29;20460;-48
2022/04/25 08:55:23;;;;;;;8.98;2.80;;;;;;;25.70;31.48;100980.31;4941368;29;20027;-48
2022/04/25 08:57:53;;;;;;;8.35;2.78;;;;;;;25.67;31.74;100982.91;4958089;29;20487;-50
2022/04/25 09:00:22;;;;;;;5.70;2.55;;;;;;;25.71;31.65;100980.34;4941206;29;20082;-48
2022/04/25 09:02:50;;;;;;;7.05;3.08;;;;;;;25.63;31.39;100984.66;4958021;29;20066;-50
2022/04/25 09:05:19;;;;;;;4.70;2.20;;;;;;;25.58;31.60;100987.25;4958428;29;20054;-47
2022/04/25 09:07:48;;;;;;;4.78;2.75;;;;;;;25.59;31.45;100991.66;4958097;29;20027;-51
2022/04/25 09:10:18;;;;;;;6.40;2.78;;;;;;;25.52;31.67;100991.59;4957756;29;20050;-52
2022/04/25 09:12:47;;;;;;;5.35;2.63;;;;;;;25.52;31.63;100996.84;4957923;29;20396;-53
2022/04/25 09:15:19;;;;;;;6.43;2.63;;;;;;;25.55;31.52;100991.63;4957966;29;20110;-50
2022/04/25 09:17:47;;;;;;;10.85;3.50;;;;;;;25.55;31.86;101007.38;4957875;29;20110;-48
2022/04/25 09:20:16;;;;;;;4.63;2.45;;;;;;;25.59;31.58;101001.25;4957801;29;20034;-49
2022/04/25 09:22:44;;;;;;;5.05;2.28;;;;;;;25.58;31.75;101002.13;4940805;29;20454;-49
2022/04/25 09:25:16;;;;;;;6.55;2.53;;;;;;;25.57;31.70;101009.13;4957813;29;20087;-50
2022/04/25 09:27:47;;;;;;;4.70;2.50;;;;;;;25.48;31.82;100996.81;4958112;29;20026;-51
2022/04/25 09:30:19;;;;;;;5.38;2.60;;;;;;;25.61;31.54;101007.41;4957650;29;20059;-48
2022/04/25 09:32:51;;;;;;;6.80;2.83;;;;;;;25.63;31.57;101006.56;4957684;29;20032;-49
2022/04/25 09:35:32;;;;;;;8.48;2.90;;;;;;;25.70;31.45;101012.75;4957915;29;20460;-52
2022/04/25 09:38:04;;;;;;;5.20;3.08;;;;;;;25.67;31.25;101001.31;4956828;29;20054;-48
2022/04/25 09:40:36;;;;;;;5.05;2.30;;;;;;;25.66;31.33;101018.84;4957468;29;20030;-51
2022/04/25 09:43:08;;;;;;;5.05;2.60;;;;;;;25.66;31.53;101016.19;4957127;29;20079;-49
2022/04/25 09:45:40;;;;;;;4.07;2.35;;;;;;;25.71;31.79;101019.75;4956665;28;20466;-49
2022/04/25 09:48:10;;;;;;;5.15;2.60;;;;;;;25.76;31.40;101022.41;4941060;29;20209;-48
2022/04/25 09:50:39;;;;;;;7.20;2.45;;;;;;;25.78;31.46;101028.56;4956716;29;20086;-48
2022/04/25 09:53:09;;;;;;;4.78;2.63;;;;;;;25.75;31.64;101016.25;4957363;29;20098;-50
2022/04/25 09:55:39;;;;;;;3.67;2.22;;;;;;;25.80;31.59;101034.69;4940179;29;20035;-47
2022/04/25 09:58:19;;;;;;;6.72;2.63;;;;;;;25.81;31.65;101039.09;4956555;29;20031;-51
2022/04/25 10:00:53;;;;;;;5.00;2.70;;;;;;;25.82;31.38;101040.81;4956876;29;20531;-49
2022/04/25 10:03:35;;;;;;;5.63;2.30;;;;;;;25.85;31.61;101037.34;4956508;29;20446;-47
2022/04/25 10:06:05;;;;;;;5.95;2.85;;;;;;;25.89;31.66;101047.03;4957287;29;20074;-51
2022/04/25 10:08:35;;;;;;;8.85;3.75;;;;;;;25.86;31.77;101049.63;4957053;29;20035;-50
2022/04/25 10:11:07;;;;;;;4.72;2.70;;;;;;;25.86;31.43;101039.97;4957158;29;20473;-50
2022/04/25 10:13:35;;;;;;;5.05;2.63;;;;;;;25.87;31.86;101044.34;4956787;29;20031;-48
2022/04/25 10:16:05;;;;;;;4.57;2.65;;;;;;;25.84;31.54;101040.84;4956963;29;20027;-46
2022/04/25 10:18:33;;;;;;;5.50;2.20;;;;;;;25.85;31.85;101043.47;4956277;29;20024;-47
2022/04/25 10:21:04;;;;;;;10.18;2.83;;;;;;;25.86;31.95;101045.22;4956610;29;20120;-53
2022/04/25 10:23:32;;;;;;;6.78;2.75;;;;;;;25.94;31.40;101047.91;4956479;29;20388;-46
2022/04/25 10:26:01;;;;;;;5.15;2.78;;;;;;;25.94;31.72;101045.28;4939792;29;20090;-47
2022/04/25 10:28:54;;;;;;;5.35;2.50;;;;;;;25.98;31.78;101051.44;4924012;29;20035;-49
2022/04/25 10:31:28;;;;;;;4.10;2.25;;;;;;;26.02;31.26;101050.56;4952384;29;20110;-49
2022/04/25 10:33:58;;;;;;;6.03;2.67;;;;;;;26.00;31.36;101052.31;4939438;29;20465;-48
2022/04/25 10:36:47;;;;;;;4.65;2.20;;;;;;;26.03;31.33;101045.34;4956522;29;20063;-48
2022/04/25 10:39:15;;;;;;;5.70;2.30;;;;;;;26.04;31.42;101051.47;4956315;29;20122;-47
2022/04/25 10:44:42;;;;;;;6.45;2.65;;;;;;;26.07;31.35;101043.59;4949278;29;20489;-51
2022/04/25 10:47:20;;;;;;;6.93;2.67;;;;;;;26.03;31.33;101047.97;4956121;29;20031;-50
2022/04/25 10:49:50;;;;;;;5.97;3.15;;;;;;;26.04;31.12;101043.56;4956441;29;20540;-46
2022/04/25 10:55:14;;;;;;;5.88;2.72;;;;;;;26.08;31.11;101054.13;4955648;28;20118;-52
2022/04/25 10:58:04;;;;;;;8.13;2.43;;;;;;;26.12;31.55;101051.53;4955901;29;20062;-50
2022/04/25 11:00:52;;;;;;;5.75;2.42;;;;;;;26.13;31.14;101050.66;4951347;29;20035;-53
2022/04/25 11:03:23;;;;;;;6.47;2.53;;;;;;;26.08;31.58;101055.88;4955434;29;20032;-50
2022/04/25 11:05:55;;;;;;;5.53;2.50;;;;;;;26.13;31.71;101061.19;4956167;29;20075;-54
2022/04/25 11:08:24;;;;;;;5.63;2.50;;;;;;;26.13;31.23;101062.09;4955849;29;20027;-54
2022/04/25 11:11:04;;;;;;;5.55;2.72;;;;;;;26.15;31.70;101060.31;4955821;29;20087;-52
2022/04/25 11:13:35;;;;;;;8.10;2.33;;;;;;;26.17;31.63;101065.59;4938586;29;20039;-47
2022/04/25 11:16:24;;;;;;;5.28;2.17;;;;;;;26.21;31.54;101056.88;4955702;29;20024;-51
2022/04/25 11:19:14;;;;;;;5.60;2.88;;;;;;;26.24;31.56;101062.13;4955491;29;20027;-50
2022/04/25 11:21:46;;;;;;;6.03;2.45;;;;;;;26.23;31.86;101061.25;4952705;29;20035;-51
2022/04/25 11:24:35;;;;;;;5.00;1.95;;;;;;;26.28;31.57;101066.53;4955678;29;20023;-48
2022/04/25 11:27:05;;;;;;;5.20;2.40;;;;;;;26.27;31.71;101062.13;4951817;29;20078;-54
2022/04/25 11:29:34;;;;;;;4.38;2.15;;;;;;;26.31;31.80;101057.78;4955378;29;20035;-52
2022/04/25 11:32:23;;;;;;;6.35;2.47;;;;;;;26.37;31.57;101057.78;4938718;29;20492;-52
2022/04/25 11:34:52;;;;;;;5.53;2.22;;;;;;;26.37;31.51;101055.16;4949721;29;20485;-52
2022/04/25 11:37:22;;;;;;;5.40;2.58;;;;;;;26.37;31.59;101060.44;4955046;29;20089;-45
2022/04/25 11:40:02;;;;;;;7.18;2.70;;;;;;;26.41;31.45;101054.31;4955136;29;20079;-48
2022/04/25 11:42:32;;;;;;;4.80;2.45;;;;;;;26.41;31.56;101062.22;4955165;29;20051;-51
2022/04/25 11:45:01;;;;;;;5.40;2.70;;;;;;;26.43;31.70;101065.72;4955350;29;20069;-53
2022/04/25 11:47:31;;;;;;;4.93;2.15;;;;;;;26.44;31.60;101064.84;4955244;29;20031;-52
2022/04/25 11:50:02;;;;;;;7.28;2.55;;;;;;;26.44;31.42;101056.97;4955358;29;20042;-53
2022/04/25 11:52:31;;;;;;;4.43;2.63;;;;;;;26.48;31.55;101060.47;4955358;29;20158;-53
2022/04/25 11:54:59;;;;;;;5.50;2.30;;;;;;;26.48;31.65;101056.06;4955134;29;20094;-50
2022/04/25 11:57:28;;;;;;;5.15;2.92;;;;;;;26.47;31.63;101054.34;4955118;29;20035;-47
2022/04/25 12:00:16;;;;;;;6.32;2.97;;;;;;;26.52;31.69;101054.38;4955057;29;20028;-50
2022/04/25 12:02:46;;;;;;;6.07;2.55;;;;;;;26.53;31.42;101061.38;4950306;29;20090;-51